KCFD/CFD METAR and TAF weather

Enter ICAO airport designator
Station Type Date Time Source
KCFD METAR 2020/04/05 22:35 UTC NOAA

KCFD 052235Z AUTO 05004KT 10SM OVC028 20/18 A3004 RMK AO2 T02000176


Station Type Date Time Source
KCFD Decoded METAR 2020/04/05 22:35 UTC NOAA

Station name not available
Apr 05, 2020 - 06:35 PM EDT / 2020.04.05 2235 UTC
Wind: from the NE (050 degrees) at 5 MPH (4 KT):0
Visibility: 10 mile(s):0
Sky conditions: overcast
Temperature: 68.0 F (20.0 C)
Dew Point: 63.7 F (17.6 C)
Relative Humidity: 86%
Pressure (altimeter): 30.04 in. Hg (1017 hPa)
ob: KCFD 052235Z AUTO 05004KT 10SM OVC028 20/18 A3004 RMK AO2 T02000176
cycle: 22

Station Type Date Time Source
KCFD TAF UTC NOAA

Error!

Example: see airport list